Time;durP1;ratioP1;P1;durP2;ratioP2;P2;SDS_P1;SDS_P2;PMS_P1;PMS_P2;Temp;Humidity;BMP_temperature;BMP_pressure;BME280_temperature;BME280_humidity;BME280_pressure;Samples;Min_cycle;Max_cycle;Signal;HPM_P1;HPM_P2
2022/01/22 00:02:05;;;;;;;32.73;22.03;;;;;;;;;;5010784;28;20200;-80
2022/01/22 00:04:32;;;;;;;33.83;21.80;;;;;;;;;;5011390;28;20197;-80
2022/01/22 00:07:02;;;;;;;32.93;21.80;;;;;;;;;;5011067;28;20345;-80
2022/01/22 00:09:35;;;;;;;31.83;20.77;;;;;;;;;;5010850;28;20230;-81
2022/01/22 00:12:03;;;;;;;32.07;20.53;;;;;;;;;;5011002;28;20206;-80
2022/01/22 00:14:30;;;;;;;31.30;20.30;;;;;;;;;;5010907;28;20291;-80
2022/01/22 00:16:58;;;;;;;33.13;20.50;;;;;;;;;;5011063;28;20230;-80
2022/01/22 00:19:27;;;;;;;36.10;20.27;;;;;;;;;;5011499;28;20595;-80
2022/01/22 00:21:55;;;;;;;29.00;19.23;;;;;;;;;;5011255;28;20208;-80
2022/01/22 00:24:22;;;;;;;34.97;19.40;;;;;;;;;;5011403;28;20204;-80
2022/01/22 00:26:49;;;;;;;30.57;20.40;;;;;;;;;;5011745;28;20256;-80
2022/01/22 00:29:17;;;;;;;34.10;21.10;;;;;;;;;;5010511;28;20646;-80
2022/01/22 00:31:44;;;;;;;34.50;21.93;;;;;;;;;;5011179;28;20204;-80
2022/01/22 00:34:11;;;;;;;28.37;21.17;;;;;;;;;;5010740;28;20286;-81
2022/01/22 00:36:40;;;;;;;33.53;21.17;;;;;;;;;;5011315;28;20212;-81
2022/01/22 00:39:07;;;;;;;30.33;19.63;;;;;;;;;;5010457;28;20229;-81
2022/01/22 00:41:35;;;;;;;30.50;20.50;;;;;;;;;;5011661;28;20669;-81
2022/01/22 00:44:02;;;;;;;29.80;20.50;;;;;;;;;;5010094;28;20323;-81
2022/01/22 00:46:30;;;;;;;31.10;19.73;;;;;;;;;;5010865;28;20251;-80
2022/01/22 00:48:57;;;;;;;31.03;20.20;;;;;;;;;;5011675;28;20254;-80
2022/01/22 00:51:24;;;;;;;33.83;19.77;;;;;;;;;;5011062;28;20290;-81
2022/01/22 00:53:53;;;;;;;29.57;18.40;;;;;;;;;;5010763;28;20236;-81
2022/01/22 00:56:20;;;;;;;28.03;18.27;;;;;;;;;;5011100;28;20285;-81
2022/01/22 00:58:47;;;;;;;26.83;17.43;;;;;;;;;;5011880;28;20375;-81
2022/01/22 01:01:14;;;;;;;27.73;17.97;;;;;;;;;;5014243;28;20232;-81
2022/01/22 01:03:42;;;;;;;26.17;18.60;;;;;;;;;;5013788;28;20210;-80
2022/01/22 01:06:09;;;;;;;29.07;18.60;;;;;;;;;;5014006;28;20714;-80
2022/01/22 01:08:37;;;;;;;30.43;19.97;;;;;;;;;;5014429;28;20750;-80
2022/01/22 01:11:06;;;;;;;29.67;19.97;;;;;;;;;;5014218;28;20206;-80
2022/01/22 01:13:39;;;;;;;31.60;19.97;;;;;;;;;;5011660;28;20226;-80
2022/01/22 01:16:18;;;;;;;29.23;19.20;;;;;;;;;;5014676;28;20220;-80
2022/01/22 01:32:39;;;;;;;25.77;17.50;;;;;;;;;;5014424;28;20200;-81
2022/01/22 01:35:08;;;;;;;26.63;18.40;;;;;;;;;;5014197;28;20209;-80
2022/01/22 01:37:35;;;;;;;26.10;17.47;;;;;;;;;;5014633;28;20265;-81
2022/01/22 01:40:05;;;;;;;23.90;16.30;;;;;;;;;;5013719;28;20236;-81
2022/01/22 01:42:42;;;;;;;26.57;16.80;;;;;;;;;;5013793;28;20229;-80
2022/01/22 01:45:09;;;;;;;19.93;13.90;;;;;;;;;;5013849;28;20203;-80
2022/01/22 01:47:40;;;;;;;20.40;13.50;;;;;;;;;;5013796;28;20307;-80
2022/01/22 01:50:08;;;;;;;19.40;13.53;;;;;;;;;;5013399;28;20294;-77
2022/01/22 01:52:41;;;;;;;18.13;12.67;;;;;;;;;;5014162;28;20289;-77
2022/01/22 01:55:13;;;;;;;21.07;13.87;;;;;;;;;;5013288;28;20725;-77
2022/01/22 01:57:43;;;;;;;20.37;13.40;;;;;;;;;;5013379;28;20234;-77
2022/01/22 02:00:13;;;;;;;22.77;14.37;;;;;;;;;;5013760;28;20278;-77
2022/01/22 02:02:41;;;;;;;23.60;15.57;;;;;;;;;;5014232;28;20257;-77
2022/01/22 02:05:10;;;;;;;22.63;15.83;;;;;;;;;;5013467;28;20240;-77
2022/01/22 02:07:39;;;;;;;27.03;16.57;;;;;;;;;;5002319;28;20592;-77
2022/01/22 02:10:08;;;;;;;25.97;16.83;;;;;;;;;;5006308;28;20332;-77
2022/01/22 02:12:59;;;;;;;25.33;16.03;;;;;;;;;;5013578;28;20232;-77
2022/01/22 02:23:50;;;;;;;27.07;18.10;;;;;;;;;;5012600;28;20208;-77
2022/01/22 02:26:18;;;;;;;25.10;16.87;;;;;;;;;;5011550;28;20227;-77
2022/01/22 02:28:48;;;;;;;27.80;16.97;;;;;;;;;;5011904;28;20216;-77
2022/01/22 02:31:18;;;;;;;22.83;16.13;;;;;;;;;;5011832;28;20733;-77
2022/01/22 02:33:52;;;;;;;26.20;17.47;;;;;;;;;;5012171;28;20295;-76
2022/01/22 02:36:25;;;;;;;24.03;16.17;;;;;;;;;;5012645;28;20235;-77
2022/01/22 02:38:58;;;;;;;24.13;15.43;;;;;;;;;;5012349;28;20201;-77
2022/01/22 02:41:26;;;;;;;22.73;15.97;;;;;;;;;;5013094;28;20714;-77
2022/01/22 02:43:54;;;;;;;25.20;16.37;;;;;;;;;;5012579;28;20262;-77
2022/01/22 02:46:23;;;;;;;27.43;16.57;;;;;;;;;;5012699;28;20223;-77
2022/01/22 02:48:50;;;;;;;26.37;17.37;;;;;;;;;;5011443;28;20291;-77
2022/01/22 02:51:17;;;;;;;22.27;16.40;;;;;;;;;;5012676;28;20284;-77
2022/01/22 02:53:48;;;;;;;23.93;17.10;;;;;;;;;;5012571;28;20291;-77
2022/01/22 02:56:16;;;;;;;25.37;17.83;;;;;;;;;;5012351;28;20295;-77
2022/01/22 02:58:43;;;;;;;27.87;17.17;;;;;;;;;;5012685;28;20222;-77
2022/01/22 03:01:15;;;;;;;24.13;17.53;;;;;;;;;;5012476;28;20739;-77
2022/01/22 03:03:42;;;;;;;25.70;17.60;;;;;;;;;;5012494;28;20195;-77
2022/01/22 03:06:09;;;;;;;25.50;18.10;;;;;;;;;;5011694;28;20295;-77
2022/01/22 03:08:39;;;;;;;22.93;17.27;;;;;;;;;;5012023;28;20224;-77
2022/01/22 03:11:17;;;;;;;26.93;17.57;;;;;;;;;;5011892;28;20235;-77
2022/01/22 03:16:48;;;;;;;25.47;17.30;;;;;;;;;;4992942;28;20197;-77
2022/01/22 03:19:29;;;;;;;24.93;17.93;;;;;;;;;;4997163;28;20194;-77
2022/01/22 03:22:02;;;;;;;26.63;18.03;;;;;;;;;;5012373;28;20204;-77
2022/01/22 03:27:22;;;;;;;27.73;17.57;;;;;;;;;;5012174;28;20232;-77
2022/01/22 03:29:50;;;;;;;29.27;17.83;;;;;;;;;;5011390;28;20253;-77
2022/01/22 03:32:18;;;;;;;25.10;16.87;;;;;;;;;;5011866;28;20201;-77
2022/01/22 03:34:55;;;;;;;24.87;18.00;;;;;;;;;;5012445;28;20231;-77
2022/01/22 03:37:23;;;;;;;21.60;16.20;;;;;;;;;;5008843;28;20201;-77
2022/01/22 03:39:50;;;;;;;22.70;16.17;;;;;;;;;;4992582;28;20233;-77
2022/01/22 03:42:18;;;;;;;29.77;17.80;;;;;;;;;;4992505;28;20652;-77
2022/01/22 03:44:45;;;;;;;24.43;18.07;;;;;;;;;;5008683;28;20827;-77
2022/01/22 03:47:13;;;;;;;21.23;16.00;;;;;;;;;;5010468;28;20304;-77
2022/01/22 03:49:40;;;;;;;22.33;16.93;;;;;;;;;;5011031;28;20233;-77
2022/01/22 03:52:07;;;;;;;22.73;16.80;;;;;;;;;;5011872;28;20235;-77
2022/01/22 03:54:35;;;;;;;23.23;17.37;;;;;;;;;;5010539;28;20692;-77
2022/01/22 03:57:02;;;;;;;24.57;16.60;;;;;;;;;;5011454;28;20753;-77
2022/01/22 03:59:31;;;;;;;24.90;16.87;;;;;;;;;;5011808;28;20299;-78
2022/01/22 04:04:46;;;;;;;23.70;15.83;;;;;;;;;;5011231;28;20336;-77
2022/01/22 04:10:05;;;;;;;21.17;15.37;;;;;;;;;;5000709;28;20201;-77
2022/01/22 04:12:41;;;;;;;24.10;16.30;;;;;;;;;;5011603;28;20201;-77
2022/01/22 04:15:13;;;;;;;23.23;15.13;;;;;;;;;;5011308;28;20207;-77
2022/01/22 04:26:02;;;;;;;21.37;15.63;;;;;;;;;;5010971;28;20204;-77
2022/01/22 04:28:29;;;;;;;23.63;15.63;;;;;;;;;;5010592;28;20220;-77
2022/01/22 04:30:58;;;;;;;20.03;15.20;;;;;;;;;;5010653;28;20732;-77
2022/01/22 04:33:25;;;;;;;22.10;16.10;;;;;;;;;;5012472;28;20285;-77
2022/01/22 04:35:52;;;;;;;21.70;16.23;;;;;;;;;;5014771;28;20284;-77
2022/01/22 04:38:20;;;;;;;21.90;15.67;;;;;;;;;;5014850;28;20205;-77
2022/01/22 04:40:47;;;;;;;22.63;16.43;;;;;;;;;;5015742;28;20233;-76
2022/01/22 04:43:15;;;;;;;19.73;15.67;;;;;;;;;;5014593;28;20323;-77
2022/01/22 04:45:53;;;;;;;21.80;15.90;;;;;;;;;;5014417;28;20201;-77
2022/01/22 04:48:39;;;;;;;23.37;16.37;;;;;;;;;;5013823;28;20224;-77
2022/01/22 04:56:44;;;;;;;21.87;15.50;;;;;;;;;;5013993;28;20229;-77
2022/01/22 04:59:12;;;;;;;22.93;16.50;;;;;;;;;;5014352;28;20238;-77
2022/01/22 05:01:39;;;;;;;20.83;15.53;;;;;;;;;;5014837;28;20233;-77
2022/01/22 05:04:07;;;;;;;21.87;15.50;;;;;;;;;;5015061;28;20245;-77
2022/01/22 05:06:35;;;;;;;20.37;15.40;;;;;;;;;;5014343;28;20362;-77
2022/01/22 05:09:02;;;;;;;23.97;16.87;;;;;;;;;;5014753;28;20232;-77
2022/01/22 05:11:29;;;;;;;23.43;16.70;;;;;;;;;;5003021;28;20218;-77
2022/01/22 05:13:56;;;;;;;22.63;16.27;;;;;;;;;;5012969;28;20297;-77
2022/01/22 05:16:24;;;;;;;23.87;16.57;;;;;;;;;;5014420;28;20221;-77
2022/01/22 05:18:55;;;;;;;21.67;17.03;;;;;;;;;;5014499;28;20201;-77
2022/01/22 05:21:25;;;;;;;23.47;16.60;;;;;;;;;;5014862;28;20579;-77
2022/01/22 05:23:55;;;;;;;21.63;16.10;;;;;;;;;;5014710;28;20205;-77
2022/01/22 05:29:23;;;;;;;25.43;15.97;;;;;;;;;;4992430;28;20202;-77
2022/01/22 05:37:20;;;;;;;22.17;15.60;;;;;;;;;;4992041;28;20266;-77
2022/01/22 05:39:48;;;;;;;19.50;15.10;;;;;;;;;;4991836;28;20206;-77
2022/01/22 05:42:16;;;;;;;23.00;16.27;;;;;;;;;;4992139;28;20221;-77
2022/01/22 05:44:43;;;;;;;21.97;15.30;;;;;;;;;;4990519;28;20316;-77
2022/01/22 05:47:12;;;;;;;20.10;15.83;;;;;;;;;;4991554;28;20318;-77
2022/01/22 05:49:42;;;;;;;20.33;15.50;;;;;;;;;;4992619;28;20209;-77
2022/01/22 05:52:10;;;;;;;23.47;15.80;;;;;;;;;;4992318;28;20231;-77
2022/01/22 05:55:09;;;;;;;21.27;15.83;;;;;;;;;;4992263;28;20289;-77
2022/01/22 06:00:21;;;;;;;18.90;15.30;;;;;;;;;;4991574;28;20240;-77
2022/01/22 06:02:48;;;;;;;20.17;15.60;;;;;;;;;;4992262;28;20203;-77
2022/01/22 06:05:15;;;;;;;22.43;16.57;;;;;;;;;;4997638;28;20289;-77
2022/01/22 06:07:43;;;;;;;21.13;15.80;;;;;;;;;;5013851;28;20306;-77
2022/01/22 06:10:18;;;;;;;21.90;16.30;;;;;;;;;;5013110;28;20225;-77
2022/01/22 06:13:09;;;;;;;24.57;15.50;;;;;;;;;;5012884;28;20593;-77
2022/01/22 06:15:33;;;;;;;20.77;15.57;;;;;;;;;;5013016;28;20207;-77
2022/01/22 06:18:00;;;;;;;18.83;15.53;;;;;;;;;;5012651;28;20707;-77
2022/01/22 06:20:28;;;;;;;20.13;14.77;;;;;;;;;;5013441;28;20700;-77
2022/01/22 06:22:55;;;;;;;19.63;15.67;;;;;;;;;;5013382;28;20258;-77
2022/01/22 06:25:23;;;;;;;22.07;15.13;;;;;;;;;;5012574;28;20290;-77
2022/01/22 06:27:51;;;;;;;20.67;15.30;;;;;;;;;;5012984;28;20269;-77
2022/01/22 06:30:19;;;;;;;19.00;14.93;;;;;;;;;;5012672;28;20276;-77
2022/01/22 06:32:46;;;;;;;21.77;15.63;;;;;;;;;;5012817;28;20208;-77
2022/01/22 06:35:14;;;;;;;66.03;40.07;;;;;;;;;;5013497;28;20199;-77
2022/01/22 06:37:41;;;;;;;33.47;24.40;;;;;;;;;;5013632;28;20286;-77
2022/01/22 06:42:55;;;;;;;27.00;18.53;;;;;;;;;;5012746;28;20225;-77
2022/01/22 06:45:23;;;;;;;23.03;17.47;;;;;;;;;;5013138;28;20241;-77
2022/01/22 06:47:50;;;;;;;21.53;16.57;;;;;;;;;;5013341;28;20314;-77
2022/01/22 06:50:19;;;;;;;22.90;16.63;;;;;;;;;;5012551;28;20280;-77
2022/01/22 06:52:46;;;;;;;21.83;15.47;;;;;;;;;;5012713;28;20208;-77
2022/01/22 06:55:17;;;;;;;19.73;15.53;;;;;;;;;;5013037;28;20283;-78
2022/01/22 06:57:44;;;;;;;24.97;18.30;;;;;;;;;;5012813;28;20199;-76
2022/01/22 07:00:14;;;;;;;29.77;19.40;;;;;;;;;;5013285;28;20683;-76
2022/01/22 07:02:41;;;;;;;24.37;18.47;;;;;;;;;;5012911;28;20291;-76
2022/01/22 07:05:08;;;;;;;26.03;18.70;;;;;;;;;;5012924;28;20207;-76
2022/01/22 07:07:36;;;;;;;27.23;19.73;;;;;;;;;;5012783;28;20297;-76
2022/01/22 07:10:03;;;;;;;42.30;26.63;;;;;;;;;;5012787;28;20223;-76
2022/01/22 07:12:30;;;;;;;41.17;26.83;;;;;;;;;;5011783;28;20241;-76
2022/01/22 07:14:57;;;;;;;24.00;18.73;;;;;;;;;;5012529;28;20294;-76
2022/01/22 07:17:27;;;;;;;23.50;18.17;;;;;;;;;;5012062;28;20298;-76
2022/01/22 07:19:54;;;;;;;24.90;17.97;;;;;;;;;;5012000;28;20290;-76
2022/01/22 07:22:35;;;;;;;23.27;16.33;;;;;;;;;;5013066;28;20213;-76
2022/01/22 07:25:02;;;;;;;19.90;15.60;;;;;;;;;;5011925;28;20204;-76
2022/01/22 07:27:29;;;;;;;22.40;17.33;;;;;;;;;;5012619;28;20318;-76
2022/01/22 07:29:56;;;;;;;22.80;17.50;;;;;;;;;;5012400;28;20231;-77
2022/01/22 07:32:33;;;;;;;25.93;17.87;;;;;;;;;;5012438;28;20303;-77
2022/01/22 07:35:01;;;;;;;22.17;17.13;;;;;;;;;;5011800;28;20215;-76
2022/01/22 07:37:28;;;;;;;19.90;16.43;;;;;;;;;;5011039;28;20294;-79
2022/01/22 07:39:55;;;;;;;22.57;16.77;;;;;;;;;;5011484;28;20223;-78
2022/01/22 07:42:22;;;;;;;21.63;17.23;;;;;;;;;;5010351;28;20821;-77
2022/01/22 07:44:49;;;;;;;20.23;16.43;;;;;;;;;;5003659;28;20770;-78
2022/01/22 07:47:17;;;;;;;24.23;17.20;;;;;;;;;;5010126;28;20291;-78
2022/01/22 07:49:45;;;;;;;21.40;15.17;;;;;;;;;;5011250;28;20230;-78
2022/01/22 07:52:13;;;;;;;19.80;15.10;;;;;;;;;;5011536;28;20242;-78
2022/01/22 07:54:40;;;;;;;17.53;14.03;;;;;;;;;;5012007;28;20290;-78
2022/01/22 07:57:07;;;;;;;18.80;14.60;;;;;;;;;;5012313;28;20315;-78
2022/01/22 07:59:35;;;;;;;23.20;14.97;;;;;;;;;;5011095;28;20860;-78
2022/01/22 08:02:02;;;;;;;19.30;14.93;;;;;;;;;;5011878;28;20282;-78
2022/01/22 08:04:29;;;;;;;20.67;14.87;;;;;;;;;;5011173;28;20208;-78
2022/01/22 08:06:59;;;;;;;18.47;15.20;;;;;;;;;;5010926;28;20318;-78
2022/01/22 08:09:27;;;;;;;19.70;14.73;;;;;;;;;;4323368;28;10000408;-78
2022/01/22 08:11:54;;;;;;;18.20;14.43;;;;;;;;;;5010447;28;20290;-78
2022/01/22 08:14:22;;;;;;;18.13;14.60;;;;;;;;;;5003484;28;20301;-78
2022/01/22 08:16:49;;;;;;;23.50;18.03;;;;;;;;;;4997492;28;20559;-79
2022/01/22 08:19:17;;;;;;;20.50;16.77;;;;;;;;;;5011698;28;20279;-78
2022/01/22 08:21:44;;;;;;;38.33;25.33;;;;;;;;;;5011391;28;20201;-78
2022/01/22 08:24:13;;;;;;;42.50;28.53;;;;;;;;;;5011010;28;20234;-78
2022/01/22 08:26:45;;;;;;;50.03;32.73;;;;;;;;;;5006379;28;20201;-78
2022/01/22 08:29:13;;;;;;;29.10;20.73;;;;;;;;;;5006660;28;20232;-78
2022/01/22 08:32:02;;;;;;;29.43;20.27;;;;;;;;;;5006373;28;20290;-79
2022/01/22 08:37:14;;;;;;;23.40;17.83;;;;;;;;;;4667983;28;10001492;-78
2022/01/22 08:39:43;;;;;;;21.97;16.67;;;;;;;;;;4992189;28;20243;-78
2022/01/22 08:42:10;;;;;;;27.03;19.40;;;;;;;;;;5007334;28;20224;-79
2022/01/22 08:44:39;;;;;;;23.57;16.57;;;;;;;;;;5010734;28;20262;-78
2022/01/22 08:47:07;;;;;;;19.70;15.23;;;;;;;;;;5010334;28;20201;-78
2022/01/22 08:49:34;;;;;;;21.97;14.47;;;;;;;;;;5004748;28;20263;-78
2022/01/22 08:52:01;;;;;;;18.77;13.20;;;;;;;;;;5010690;28;20239;-78
2022/01/22 08:54:29;;;;;;;19.37;13.90;;;;;;;;;;5004603;28;20208;-79
2022/01/22 08:56:57;;;;;;;19.73;15.13;;;;;;;;;;5010488;28;20294;-78
2022/01/22 08:59:24;;;;;;;22.37;17.63;;;;;;;;;;5003675;28;20194;-79
2022/01/22 09:01:52;;;;;;;23.77;18.50;;;;;;;;;;5002279;28;20245;-78
2022/01/22 09:04:19;;;;;;;23.17;17.40;;;;;;;;;;5001852;28;20236;-77
2022/01/22 09:06:46;;;;;;;21.60;16.20;;;;;;;;;;5002461;28;20201;-78
2022/01/22 09:09:13;;;;;;;21.13;16.50;;;;;;;;;;5010261;28;20603;-78
2022/01/22 09:11:42;;;;;;;20.07;16.20;;;;;;;;;;5010595;28;20205;-79
2022/01/22 09:14:13;;;;;;;20.10;15.43;;;;;;;;;;5011102;28;20197;-78
2022/01/22 09:16:40;;;;;;;20.27;14.77;;;;;;;;;;5010129;28;20228;-78
2022/01/22 09:19:10;;;;;;;21.60;14.10;;;;;;;;;;5009809;28;20204;-78
2022/01/22 09:21:38;;;;;;;27.80;20.40;;;;;;;;;;5007766;28;20211;-78
2022/01/22 09:24:06;;;;;;;31.23;24.30;;;;;;;;;;5013791;28;20280;-79
2022/01/22 09:26:33;;;;;;;31.63;23.37;;;;;;;;;;5013837;28;20228;-79
2022/01/22 09:29:01;;;;;;;31.63;24.47;;;;;;;;;;5013790;28;20308;-79
2022/01/22 09:31:30;;;;;;;25.27;21.57;;;;;;;;;;5013399;28;20653;-79
2022/01/22 09:33:59;;;;;;;25.23;19.70;;;;;;;;;;5012913;28;20636;-79
2022/01/22 09:36:27;;;;;;;16.93;13.47;;;;;;;;;;5017215;28;20216;-79
2022/01/22 09:38:54;;;;;;;19.77;13.90;;;;;;;;;;5013154;28;20296;-79
2022/01/22 09:41:22;;;;;;;26.80;19.40;;;;;;;;;;5013520;28;20229;-79
2022/01/22 09:43:49;;;;;;;24.43;17.87;;;;;;;;;;5012409;28;20320;-79
2022/01/22 09:46:17;;;;;;;20.73;15.37;;;;;;;;;;5012877;28;20295;-79
2022/01/22 09:48:46;;;;;;;17.43;12.30;;;;;;;;;;5012265;28;20454;-79
2022/01/22 09:51:14;;;;;;;17.03;11.93;;;;;;;;;;5009066;28;20716;-79
2022/01/22 09:53:41;;;;;;;15.57;11.03;;;;;;;;;;5013865;28;20287;-79
2022/01/22 09:56:09;;;;;;;22.83;10.77;;;;;;;;;;4318258;28;10000538;-79
2022/01/22 09:58:36;;;;;;;18.03;10.60;;;;;;;;;;5011904;28;20284;-79
2022/01/22 10:01:20;;;;;;;18.20;10.53;;;;;;;;;;5011686;28;20210;-80
2022/01/22 10:03:49;;;;;;;14.97;9.23;;;;;;;;;;5014206;28;20200;-80
2022/01/22 10:06:16;;;;;;;17.40;10.03;;;;;;;;;;5014092;28;20237;-79
2022/01/22 10:08:44;;;;;;;15.63;10.40;;;;;;;;;;5014128;28;20270;-79
2022/01/22 10:11:17;;;;;;;14.70;9.90;;;;;;;;;;5014492;28;20314;-79
2022/01/22 10:13:45;;;;;;;14.67;9.23;;;;;;;;;;5014064;28;20233;-79
2022/01/22 10:16:13;;;;;;;16.17;9.80;;;;;;;;;;5014039;28;20627;-80
2022/01/22 10:18:41;;;;;;;16.57;9.10;;;;;;;;;;5013272;28;20232;-80
2022/01/22 10:21:10;;;;;;;14.87;9.63;;;;;;;;;;5014313;28;20247;-80
2022/01/22 10:23:41;;;;;;;12.97;9.70;;;;;;;;;;5014348;28;20621;-80
2022/01/22 10:26:11;;;;;;;13.70;9.03;;;;;;;;;;5014093;28;20203;-80
2022/01/22 10:28:49;;;;;;;13.83;9.67;;;;;;;;;;5012871;28;20215;-81
2022/01/22 10:31:22;;;;;;;14.33;8.77;;;;;;;;;;5012712;28;20668;-81
2022/01/22 10:34:06;;;;;;;13.83;9.37;;;;;;;;;;5013632;28;20185;-80
2022/01/22 10:36:35;;;;;;;15.57;8.60;;;;;;;;;;5013473;28;20254;-80
2022/01/22 10:39:02;;;;;;;15.17;9.23;;;;;;;;;;5013833;28;20197;-80
2022/01/22 10:41:37;;;;;;;14.60;8.83;;;;;;;;;;5013389;28;20247;-80
2022/01/22 10:44:05;;;;;;;13.90;9.70;;;;;;;;;;5011118;28;20247;-80
2022/01/22 10:46:43;;;;;;;12.63;9.03;;;;;;;;;;5009814;28;20251;-80
2022/01/22 10:49:12;;;;;;;16.50;9.20;;;;;;;;;;4661265;28;10000385;-80
2022/01/22 10:51:48;;;;;;;15.17;8.90;;;;;;;;;;5012373;28;20223;-80
2022/01/22 10:54:16;;;;;;;14.83;8.80;;;;;;;;;;5002068;28;20302;-80
2022/01/22 10:56:43;;;;;;;14.53;9.17;;;;;;;;;;5011707;28;20232;-81
2022/01/22 10:59:11;;;;;;;12.63;9.00;;;;;;;;;;5012337;28;20288;-80
2022/01/22 11:01:50;;;;;;;13.33;8.90;;;;;;;;;;5012056;28;20197;-80
2022/01/22 11:04:18;;;;;;;14.53;9.40;;;;;;;;;;5011715;28;20702;-80
2022/01/22 11:06:50;;;;;;;14.97;9.23;;;;;;;;;;5011100;28;20572;-81
2022/01/22 11:09:17;;;;;;;13.43;9.30;;;;;;;;;;5011612;28;20217;-81
2022/01/22 11:11:44;;;;;;;14.10;8.93;;;;;;;;;;5011244;28;20243;-80
2022/01/22 11:14:12;;;;;;;14.50;9.20;;;;;;;;;;5012016;28;20638;-81
2022/01/22 11:16:41;;;;;;;15.57;9.03;;;;;;;;;;5010607;28;20295;-80
2022/01/22 11:19:10;;;;;;;15.53;9.67;;;;;;;;;;5011624;28;20255;-80
2022/01/22 11:21:40;;;;;;;13.30;9.27;;;;;;;;;;5005583;28;20208;-81
2022/01/22 11:24:10;;;;;;;14.63;9.10;;;;;;;;;;5012003;28;20300;-81
2022/01/22 11:26:39;;;;;;;14.67;9.13;;;;;;;;;;5013331;28;20243;-81
2022/01/22 11:29:09;;;;;;;16.57;9.33;;;;;;;;;;5011129;28;20748;-81
2022/01/22 11:31:37;;;;;;;12.37;8.97;;;;;;;;;;5011927;28;20211;-81
2022/01/22 11:34:05;;;;;;;13.93;9.53;;;;;;;;;;5011500;28;20570;-80
2022/01/22 11:36:37;;;;;;;14.00;9.73;;;;;;;;;;5009078;28;20204;-81
2022/01/22 11:39:05;;;;;;;13.57;9.90;;;;;;;;;;5011307;28;20284;-81
2022/01/22 11:41:34;;;;;;;13.37;9.60;;;;;;;;;;5010977;28;20678;-81
2022/01/22 11:44:10;;;;;;;14.50;9.53;;;;;;;;;;5009032;28;20233;-81
2022/01/22 11:46:40;;;;;;;15.50;10.10;;;;;;;;;;4999983;28;20260;-82
2022/01/22 11:49:16;;;;;;;14.00;9.43;;;;;;;;;;5009268;28;20221;-82
2022/01/22 11:51:44;;;;;;;14.20;9.63;;;;;;;;;;5010776;28;20621;-82
2022/01/22 11:54:11;;;;;;;14.50;9.33;;;;;;;;;;5011535;28;20293;-81
2022/01/22 11:56:44;;;;;;;14.83;10.10;;;;;;;;;;5010593;28;20244;-81
2022/01/22 11:59:31;;;;;;;13.57;9.90;;;;;;;;;;5009445;28;20669;-81
2022/01/22 12:02:03;;;;;;;16.73;9.77;;;;;;;;;;5008026;28;20204;-80
2022/01/22 12:04:46;;;;;;;14.80;9.97;;;;;;;;;;5010306;28;20205;-80
2022/01/22 12:07:16;;;;;;;13.20;9.87;;;;;;;;;;4999353;28;20209;-80
2022/01/22 12:09:52;;;;;;;14.47;8.83;;;;;;;;;;5004877;28;20275;-80
2022/01/22 12:15:10;;;;;;;15.40;9.10;;;;;;;;;;5009880;28;20196;-81
2022/01/22 12:18:05;;;;;;;13.53;8.53;;;;;;;;;;5013406;28;20204;-81
2022/01/22 12:21:30;;;;;;;12.70;8.53;;;;;;;;;;4969425;28;20236;-81
2022/01/22 12:23:50;;;;;;;13.07;8.80;;;;;;;;;;5005710;28;20507;-80
2022/01/22 12:26:37;;;;;;;16.03;9.20;;;;;;;;;;5010234;28;20284;-80
2022/01/22 12:29:27;;;;;;;14.37;9.30;;;;;;;;;;5009994;28;20704;-80
2022/01/22 12:32:06;;;;;;;14.23;9.30;;;;;;;;;;5010188;28;20292;-80
2022/01/22 12:34:52;;;;;;;14.20;9.13;;;;;;;;;;5009280;28;20283;-80
2022/01/22 12:37:21;;;;;;;14.97;9.20;;;;;;;;;;5009549;28;20232;-83
2022/01/22 12:39:50;;;;;;;13.00;9.33;;;;;;;;;;5010869;28;20288;-86
2022/01/22 12:42:25;;;;;;;14.10;9.47;;;;;;;;;;5010015;28;20236;-84
2022/01/22 12:44:59;;;;;;;15.87;9.10;;;;;;;;;;5011011;28;20590;-85
2022/01/22 12:47:28;;;;;;;31.77;22.10;;;;;;;;;;5011670;28;20922;-86
2022/01/22 12:50:03;;;;;;;22.90;16.93;;;;;;;;;;5010838;28;20224;-85
2022/01/22 12:52:30;;;;;;;68.23;46.33;;;;;;;;;;5010859;28;20266;-85
2022/01/22 12:54:59;;;;;;;36.33;29.73;;;;;;;;;;5012022;28;20288;-85
2022/01/22 12:57:28;;;;;;;25.33;20.17;;;;;;;;;;5013600;28;20653;-85
2022/01/22 13:00:01;;;;;;;19.67;13.20;;;;;;;;;;5014560;28;20224;-85
2022/01/22 13:02:38;;;;;;;26.73;18.10;;;;;;;;;;5014546;28;20193;-85
2022/01/22 13:05:06;;;;;;;76.83;52.87;;;;;;;;;;5014512;28;20294;-85
2022/01/22 13:07:38;;;;;;;148.83;105.43;;;;;;;;;;5013922;28;20306;-85
2022/01/22 13:10:07;;;;;;;23.07;19.57;;;;;;;;;;5013106;28;20263;-85
2022/01/22 13:12:36;;;;;;;22.17;14.90;;;;;;;;;;5013435;28;20236;-85
2022/01/22 13:15:03;;;;;;;16.77;11.80;;;;;;;;;;5013998;28;20574;-84
2022/01/22 13:17:31;;;;;;;19.83;14.60;;;;;;;;;;5008215;28;20243;-85
2022/01/22 13:20:01;;;;;;;18.50;15.13;;;;;;;;;;5013486;28;20646;-85
2022/01/22 13:22:32;;;;;;;25.20;20.90;;;;;;;;;;5013475;28;20240;-86
2022/01/22 13:25:08;;;;;;;38.37;31.87;;;;;;;;;;5012497;28;20283;-85
2022/01/22 13:27:36;;;;;;;20.70;15.30;;;;;;;;;;5009662;28;20225;-85
2022/01/22 13:30:05;;;;;;;16.67;12.70;;;;;;;;;;5011309;28;20248;-85
2022/01/22 13:32:48;;;;;;;15.23;11.90;;;;;;;;;;5014608;28;20219;-85
2022/01/22 13:35:42;;;;;;;17.83;11.63;;;;;;;;;;5011497;28;20201;-85
2022/01/22 13:49:12;;;;;;;97.30;52.80;;;;;;;;;;4971140;28;20265;-87
2022/01/22 13:51:41;;;;;;;23.45;17.05;;;;;;;;;;4972773;28;20950;-81
2022/01/22 13:54:09;;;;;;;21.38;17.58;;;;;;;;;;4966485;28;20449;-84
2022/01/22 13:56:43;;;;;;;22.67;16.47;;;;;;;;;;4973246;28;20311;-84
2022/01/22 13:59:14;;;;;;;25.40;16.97;;;;;;;;;;4974006;28;20198;-84
2022/01/22 14:01:50;;;;;;;23.27;18.00;;;;;;;;;;4972724;28;20314;-84
2022/01/22 14:04:18;;;;;;;30.60;22.03;;;;;;;;;;4973871;28;20194;-84
2022/01/22 14:06:47;;;;;;;23.50;14.33;;;;;;;;;;4972115;28;20239;-84
2022/01/22 14:09:15;;;;;;;29.63;20.07;;;;;;;;;;4974097;28;20202;-85
2022/01/22 14:12:01;;;;;;;24.63;17.37;;;;;;;;;;4973868;28;20682;-85
2022/01/22 14:14:31;;;;;;;37.57;26.30;;;;;;;;;;4970919;28;20213;-85
2022/01/22 14:17:09;;;;;;;68.73;44.73;;;;;;;;;;4973789;28;20206;-86
2022/01/22 14:19:36;;;;;;;22.60;15.37;;;;;;;;;;4973597;28;20217;-86
2022/01/22 14:22:05;;;;;;;17.53;12.13;;;;;;;;;;5014829;28;20701;-85
2022/01/22 14:24:33;;;;;;;22.77;14.10;;;;;;;;;;5012116;28;20292;-89
2022/01/22 14:27:00;;;;;;;62.83;39.83;;;;;;;;;;5014200;28;20711;-87
2022/01/22 14:29:27;;;;;;;30.93;21.23;;;;;;;;;;5013091;28;20196;-88
2022/01/22 14:31:57;;;;;;;61.60;39.57;;;;;;;;;;5012070;28;20236;-87
2022/01/22 14:34:31;;;;;;;37.30;23.60;;;;;;;;;;5012910;28;20206;-87
2022/01/22 14:36:59;;;;;;;92.47;58.73;;;;;;;;;;5012392;28;20217;-87
2022/01/22 14:43:55;;;;;;;54.53;35.03;;;;;;;;;;5012113;28;20248;-88
2022/01/22 14:45:11;;;;;;;27.43;16.73;;;;;;;;;;5006173;28;20211;-88
2022/01/22 14:47:39;;;;;;;53.83;33.77;;;;;;;;;;5011451;28;20197;-88
2022/01/22 14:50:08;;;;;;;47.67;31.37;;;;;;;;;;5011827;28;20246;-88
2022/01/22 14:52:35;;;;;;;37.27;24.10;;;;;;;;;;5010185;28;20267;-87
2022/01/22 14:55:05;;;;;;;66.23;44.13;;;;;;;;;;5013110;28;20209;-85
2022/01/22 14:57:33;;;;;;;44.40;30.37;;;;;;;;;;5012789;28;20726;-88
2022/01/22 15:00:06;;;;;;;31.93;23.07;;;;;;;;;;5012803;28;20230;-88
2022/01/22 15:02:33;;;;;;;35.50;23.33;;;;;;;;;;5012875;28;20296;-87
2022/01/22 15:05:00;;;;;;;55.90;36.13;;;;;;;;;;5012014;28;20277;-87
2022/01/22 15:07:28;;;;;;;55.93;33.37;;;;;;;;;;5012682;28;20732;-88
2022/01/22 15:09:55;;;;;;;25.63;16.20;;;;;;;;;;5011761;28;20262;-88
2022/01/22 15:12:24;;;;;;;43.27;25.47;;;;;;;;;;5012263;28;20235;-88
2022/01/22 15:14:52;;;;;;;35.27;20.73;;;;;;;;;;5012314;28;20407;-88
2022/01/22 15:17:51;;;;;;;28.57;16.53;;;;;;;;;;5012467;28;20364;-88
2022/01/22 15:20:19;;;;;;;61.50;42.07;;;;;;;;;;5013573;28;20212;-88
2022/01/22 15:22:46;;;;;;;34.80;22.53;;;;;;;;;;5013345;28;20295;-88
2022/01/22 15:25:14;;;;;;;22.87;16.03;;;;;;;;;;5012231;28;20225;-87
2022/01/22 15:27:42;;;;;;;21.20;12.80;;;;;;;;;;5006635;28;20283;-87
2022/01/22 15:30:20;;;;;;;21.27;13.67;;;;;;;;;;5012369;28;20216;-86
2022/01/22 15:32:48;;;;;;;26.27;13.67;;;;;;;;;;5012674;28;20223;-87
2022/01/22 15:35:17;;;;;;;22.73;13.73;;;;;;;;;;5009714;28;20266;-87
2022/01/22 15:37:47;;;;;;;22.17;13.43;;;;;;;;;;5004393;28;20205;-86
2022/01/22 15:40:15;;;;;;;20.93;13.40;;;;;;;;;;5008958;28;20237;-87
2022/01/22 15:42:44;;;;;;;20.00;13.07;;;;;;;;;;5001349;28;20314;-87
2022/01/22 15:45:11;;;;;;;24.07;14.67;;;;;;;;;;5006848;28;20305;-87
2022/01/22 15:47:39;;;;;;;23.07;14.07;;;;;;;;;;5009729;28;20199;-87
2022/01/22 15:50:07;;;;;;;22.53;13.47;;;;;;;;;;5012014;28;21002;-87
2022/01/22 15:52:34;;;;;;;22.40;13.53;;;;;;;;;;5011721;28;20197;-87
2022/01/22 15:55:01;;;;;;;22.00;14.53;;;;;;;;;;5011446;28;20205;-86
2022/01/22 15:57:28;;;;;;;20.37;13.83;;;;;;;;;;5011607;28;20232;-87